Averill, Minnesota
Current Conditions -  °F | °C
As of 10:54 AM on Saturday 25 Oct 2014 (Local Time) from KJKJ Reporting Station
Clear Clear  
Wind Chill: 54°   Ceiling: Unl
Heat Index: 54°   Visibility: 10mi
Dew Point: 30°   Wind: 17mph
Humidity: 41%   Direction: 320°NW
Pressure: 30.12"   Gusts: NA
Location:  46.8905°N, 96.5417°W
Report Text: KJKJ 251554Z AUTO 32015KT 10SM CLR 12/M01 A3012 RMK AO2
Loading
Personal Weather Stations






























Interactive Weather Map New forecast layout! Learn more

10-Day Weather Forecast

Advertisements
Track Severe Weather on mobile